createdAt,value
2023-02-14T00:02:26.812Z,132.73
2023-02-14T00:05:12.640Z,114.75
2023-02-14T00:07:58.496Z,117.47
2023-02-14T00:10:44.386Z,102.68
2023-02-14T00:13:30.320Z,104.75
2023-02-14T00:16:16.319Z,113.03
2023-02-14T00:19:04.848Z,103.85
2023-02-14T00:21:51.672Z,110.07
2023-02-14T00:24:37.563Z,118.07
2023-02-14T00:27:23.402Z,119.55
2023-02-14T00:30:11.272Z,149.63
2023-02-14T00:32:57.483Z,139.25
2023-02-14T00:35:43.360Z,138.30
2023-02-14T00:38:29.357Z,124.88
2023-02-14T00:41:19.287Z,122.78
2023-02-14T00:44:05.923Z,115.97
2023-02-14T00:46:52.139Z,121.88
2023-02-14T00:49:37.939Z,108.22
2023-02-14T00:52:23.802Z,109.13
2023-02-14T00:55:09.739Z,120.50
2023-02-14T00:57:55.567Z,114.70
2023-02-14T01:00:41.654Z,116.47
2023-02-14T01:03:28.252Z,117.38
2023-02-14T01:06:14.935Z,112.05
2023-02-14T01:09:00.963Z,123.05
2023-02-14T01:11:46.765Z,127.82
2023-02-14T01:14:33.643Z,119.55
2023-02-14T01:17:19.451Z,120.68
2023-02-14T01:20:07.659Z,118.28
2023-02-14T01:22:53.620Z,116.78
2023-02-14T01:25:40.006Z,119.65
2023-02-14T01:28:25.740Z,110.25
2023-02-14T01:31:14.908Z,119.68
2023-02-14T01:34:00.679Z,132.88
2023-02-14T01:36:48.022Z,153.20
2023-02-14T01:39:33.788Z,172.48
2023-02-14T01:42:19.606Z,162.05
2023-02-14T01:45:15.322Z,141.45
2023-02-14T01:48:01.513Z,121.88
2023-02-14T01:50:49.018Z,105.00
2023-02-14T01:53:34.794Z,92.15
2023-02-14T01:56:28.723Z,91.35
2023-02-14T01:59:18.147Z,76.03
2023-02-14T02:02:05.197Z,60.75
2023-02-14T02:04:54.255Z,62.85
2023-02-14T02:07:40.283Z,67.15
2023-02-14T02:10:26.387Z,88.82
2023-02-14T02:13:18.110Z,115.30
2023-02-14T02:16:28.991Z,110.13
2023-02-14T02:19:21.732Z,117.88
2023-02-14T02:22:26.407Z,123.10
2023-02-14T02:25:45.579Z,120.32
2023-02-14T02:28:53.228Z,116.00
2023-02-14T02:31:42.336Z,119.75
2023-02-14T02:35:06.171Z,118.63
2023-02-14T02:38:28.554Z,119.53
2023-02-14T02:41:28.653Z,90.13
2023-02-14T02:44:19.237Z,75.68
2023-02-14T02:47:16.652Z,77.38
2023-02-14T02:50:37.961Z,61.83
2023-02-14T02:53:54.498Z,52.30
2023-02-14T02:56:49.906Z,43.65
2023-02-14T02:59:39.927Z,42.60
2023-02-14T03:02:54.838Z,39.78
2023-02-14T03:05:41.364Z,44.50
2023-02-14T03:08:27.417Z,40.20
2023-02-14T03:11:13.557Z,37.95
2023-02-14T03:14:19.288Z,40.15
2023-02-14T03:17:14.566Z,49.45
2023-02-14T03:20:17.835Z,37.30
2023-02-14T03:23:04.093Z,39.97
2023-02-14T03:26:07.012Z,38.58
2023-02-14T03:32:09.457Z,38.88
2023-02-14T03:35:23.516Z,39.00
2023-02-14T03:38:31.475Z,42.40
2023-02-14T03:41:23.300Z,39.38
2023-02-14T03:44:11.503Z,39.30
2023-02-14T03:47:10.966Z,41.15
2023-02-14T03:50:04.275Z,39.78
2023-02-14T03:52:52.638Z,33.95
2023-02-14T03:55:47.824Z,63.25
2023-02-14T03:58:46.351Z,72.75
2023-02-14T04:02:03.651Z,72.35
2023-02-14T04:04:51.317Z,72.40
2023-02-14T04:07:46.519Z,75.63
2023-02-14T04:10:32.577Z,70.60
2023-02-14T04:13:18.456Z,61.72
2023-02-14T04:16:04.640Z,54.50
2023-02-14T04:19:08.997Z,56.17
2023-02-14T04:21:55.235Z,66.57
2023-02-14T04:24:40.917Z,80.35
2023-02-14T04:27:26.805Z,86.18
2023-02-14T04:30:13.064Z,82.47
2023-02-14T04:32:58.735Z,97.78
2023-02-14T04:35:44.645Z,94.28
2023-02-14T04:38:32.319Z,104.85
2023-02-14T04:41:18.208Z,100.22
2023-02-14T04:44:04.174Z,105.55
2023-02-14T04:46:50.087Z,102.72
2023-02-14T04:49:36.388Z,109.53
2023-02-14T04:52:22.258Z,111.22
2023-02-14T04:55:09.327Z,111.05
2023-02-14T04:57:55.670Z,113.07
2023-02-14T05:00:41.328Z,110.90
2023-02-14T05:03:27.234Z,113.32
2023-02-14T05:06:13.126Z,120.93
2023-02-14T05:08:59.230Z,134.88
2023-02-14T05:11:45.147Z,144.15
2023-02-14T05:14:31.015Z,116.95
2023-02-14T05:17:16.862Z,106.03
2023-02-14T05:20:04.098Z,114.57
2023-02-14T05:22:49.996Z,114.35
2023-02-14T05:25:35.676Z,116.35
2023-02-14T05:28:21.714Z,124.80
2023-02-14T05:31:08.265Z,123.32
2023-02-14T05:33:54.552Z,100.22
2023-02-14T05:36:40.449Z,111.20
2023-02-14T05:39:26.368Z,117.03
2023-02-14T05:42:12.103Z,128.73
2023-02-14T05:44:58.042Z,123.57
2023-02-14T05:47:43.844Z,120.07
2023-02-14T05:50:30.079Z,118.50
2023-02-14T05:53:16.648Z,115.32
2023-02-14T05:56:02.654Z,105.32
2023-02-14T05:58:48.841Z,116.38
2023-02-14T06:01:34.578Z,109.80
2023-02-14T06:04:20.370Z,112.97
2023-02-14T06:07:06.244Z,129.55
2023-02-14T06:09:52.066Z,132.07
2023-02-14T06:12:37.945Z,115.30
2023-02-14T06:15:24.038Z,122.55
2023-02-14T06:18:10.039Z,121.57
2023-02-14T06:20:56.303Z,124.70
2023-02-14T06:23:42.320Z,130.35
2023-02-14T06:26:28.309Z,138.40
2023-02-14T06:29:16.903Z,157.40
2023-02-14T06:32:06.743Z,145.20
2023-02-14T06:34:52.932Z,163.77
2023-02-14T06:37:42.136Z,164.93
2023-02-14T06:40:28.334Z,137.25
2023-02-14T06:43:14.043Z,122.53
2023-02-14T06:45:59.965Z,117.57
2023-02-14T06:48:45.629Z,117.45
2023-02-14T06:51:31.559Z,110.57
2023-02-14T06:54:17.356Z,103.10
2023-02-14T06:57:03.468Z,110.78
2023-02-14T06:59:49.482Z,119.60
2023-02-14T07:02:35.516Z,113.05
2023-02-14T07:05:21.955Z,106.93
2023-02-14T07:08:08.304Z,118.53
2023-02-14T07:10:58.887Z,141.10
2023-02-14T07:13:45.414Z,137.68
2023-02-14T07:16:31.101Z,128.35
2023-02-14T07:19:17.178Z,154.20
2023-02-14T07:22:02.943Z,154.52
2023-02-14T07:24:48.769Z,190.93
2023-02-14T07:27:34.823Z,206.88
2023-02-14T07:30:20.560Z,145.55
2023-02-14T07:33:06.571Z,118.60
2023-02-14T07:35:52.440Z,130.32
2023-02-14T07:38:38.458Z,150.65
2023-02-14T07:41:24.579Z,155.38
2023-02-14T07:44:10.691Z,177.65
2023-02-14T07:46:56.488Z,168.93
2023-02-14T07:49:42.360Z,152.30
2023-02-14T07:52:28.118Z,138.85
2023-02-14T07:55:14.445Z,132.05
2023-02-14T07:58:00.906Z,105.95
2023-02-14T08:00:46.953Z,118.35
2023-02-14T08:03:33.024Z,117.82
2023-02-14T08:06:19.329Z,124.63
2023-02-14T08:09:05.575Z,177.52
2023-02-14T08:12:15.184Z,185.20
2023-02-14T08:15:20.999Z,139.20
2023-02-14T08:18:07.152Z,154.32
2023-02-14T08:20:53.340Z,142.70
2023-02-14T08:23:39.401Z,52.55
2023-02-14T08:26:25.420Z,37.33
2023-02-14T08:29:11.480Z,35.35
2023-02-14T08:32:00.326Z,26.38
2023-02-14T08:34:47.258Z,24.02
2023-02-14T08:37:32.937Z,23.92
2023-02-14T08:40:19.862Z,31.13
2023-02-14T08:43:06.927Z,26.80
2023-02-14T08:45:53.957Z,28.48
2023-02-14T08:48:39.730Z,20.00
2023-02-14T08:51:26.201Z,24.00
2023-02-14T08:54:11.964Z,19.58
2023-02-14T08:56:58.130Z,19.52
2023-02-14T08:59:44.938Z,21.65
2023-02-14T09:02:30.695Z,18.23
2023-02-14T09:05:16.745Z,16.52
2023-02-14T09:08:03.134Z,18.58
2023-02-14T09:10:49.246Z,22.55
2023-02-14T09:13:35.091Z,28.08
2023-02-14T09:16:22.069Z,17.85
2023-02-14T09:19:07.879Z,17.45
2023-02-14T09:21:53.743Z,19.83
2023-02-14T09:24:41.515Z,18.20
2023-02-14T09:27:28.197Z,16.30
2023-02-14T09:30:14.681Z,21.02
2023-02-14T09:33:00.476Z,17.95
2023-02-14T09:35:46.706Z,17.48
2023-02-14T09:38:32.567Z,20.02
2023-02-14T09:41:50.193Z,18.02
2023-02-14T09:44:39.105Z,21.58
2023-02-14T09:48:00.144Z,15.77
2023-02-14T09:50:49.188Z,16.38
2023-02-14T09:53:45.834Z,17.38
2023-02-14T09:56:52.176Z,18.27
2023-02-14T10:00:11.149Z,24.73
2023-02-14T10:03:12.204Z,17.70
2023-02-14T10:06:07.439Z,15.25
2023-02-14T10:09:01.244Z,25.05
2023-02-14T10:11:48.173Z,18.35
2023-02-14T10:14:40.406Z,17.77
2023-02-14T10:17:42.838Z,18.23
2023-02-14T10:20:35.791Z,23.83
2023-02-14T10:26:20.787Z,17.45
2023-02-14T10:29:14.312Z,22.55
2023-02-14T10:32:02.532Z,18.30
2023-02-14T10:34:50.452Z,18.90
2023-02-14T10:37:51.268Z,18.98
2023-02-14T10:40:55.630Z,17.73
2023-02-14T10:43:53.662Z,20.40
2023-02-14T10:47:04.059Z,20.90
2023-02-14T10:49:58.308Z,22.20
2023-02-14T10:53:19.162Z,19.60
2023-02-14T10:56:08.976Z,21.13
2023-02-14T10:58:56.801Z,23.60
2023-02-14T11:01:42.904Z,20.30
2023-02-14T11:04:30.990Z,28.58
2023-02-14T11:07:19.106Z,25.15
2023-02-14T11:10:11.458Z,30.15
2023-02-14T11:12:58.070Z,32.35
2023-02-14T11:15:46.320Z,18.58
2023-02-14T11:18:35.720Z,17.00
2023-02-14T11:21:24.388Z,15.00
2023-02-14T11:24:29.323Z,19.02
2023-02-14T11:27:17.543Z,15.50
2023-02-14T11:30:13.587Z,15.50
2023-02-14T11:33:00.436Z,19.90
2023-02-14T11:35:50.932Z,14.48
2023-02-14T11:38:40.068Z,15.18
2023-02-14T11:41:26.153Z,12.30
2023-02-14T11:44:22.463Z,12.73
2023-02-14T11:47:29.336Z,14.25
2023-02-14T11:50:24.786Z,15.00
2023-02-14T11:53:12.482Z,13.25
2023-02-14T11:56:00.771Z,24.58
2023-02-14T11:58:56.746Z,15.10
2023-02-14T12:01:46.228Z,14.15
2023-02-14T12:04:38.181Z,18.95
2023-02-14T12:07:34.429Z,13.02
2023-02-14T12:10:27.714Z,12.68
2023-02-14T12:13:13.682Z,12.35
2023-02-14T12:16:00.443Z,14.13
2023-02-14T12:18:54.421Z,13.05
2023-02-14T12:22:01.034Z,11.18
2023-02-14T12:24:52.837Z,14.68
2023-02-14T12:27:48.125Z,11.63
2023-02-14T12:30:35.299Z,9.00
2023-02-14T12:33:22.248Z,9.77
2023-02-14T12:36:39.555Z,9.65
2023-02-14T12:39:42.450Z,16.02
2023-02-14T12:46:04.116Z,14.82
2023-02-14T12:49:28.947Z,12.90
2023-02-14T12:52:33.227Z,6.70
2023-02-14T12:55:48.679Z,11.13
2023-02-14T12:58:49.777Z,16.45
2023-02-14T13:01:56.385Z,15.82
2023-02-14T13:04:53.606Z,11.68
2023-02-14T13:08:04.363Z,12.43
2023-02-14T13:11:22.066Z,15.32
2023-02-14T13:14:43.089Z,17.52
2023-02-14T13:17:35.059Z,15.90
2023-02-14T13:20:39.020Z,16.05
2023-02-14T13:23:40.037Z,12.40
2023-02-14T13:26:30.446Z,9.85
2023-02-14T13:29:20.539Z,9.50
2023-02-14T13:32:06.700Z,13.15
2023-02-14T13:34:53.218Z,12.43
2023-02-14T13:37:39.276Z,55.45
2023-02-14T13:40:26.501Z,12.15
2023-02-14T13:43:12.264Z,8.73
2023-02-14T13:45:58.162Z,8.10
2023-02-14T13:48:55.949Z,9.15
2023-02-14T13:51:45.021Z,8.55
2023-02-14T13:54:31.111Z,11.30
2023-02-14T13:57:32.491Z,9.75
2023-02-14T14:00:21.402Z,11.70
2023-02-14T14:03:13.753Z,14.43
2023-02-14T14:06:13.255Z,12.95
2023-02-14T14:08:58.981Z,8.80
2023-02-14T14:11:44.833Z,8.93
2023-02-14T14:14:36.217Z,13.63
2023-02-14T14:17:26.051Z,10.45
2023-02-14T14:20:21.303Z,12.68
2023-02-14T14:23:28.647Z,14.27
2023-02-14T14:26:36.853Z,17.75
2023-02-14T14:29:45.610Z,9.18
2023-02-14T14:32:36.969Z,16.90
2023-02-14T14:35:24.883Z,12.77
2023-02-14T14:38:13.831Z,11.68
2023-02-14T14:41:01.232Z,14.43
2023-02-14T14:43:47.624Z,11.60
2023-02-14T14:46:33.693Z,12.43
2023-02-14T14:49:21.366Z,15.93
2023-02-14T14:52:08.130Z,14.80
2023-02-14T14:54:53.804Z,14.50
2023-02-14T14:57:40.055Z,9.32
2023-02-14T15:00:29.879Z,11.95
2023-02-14T15:03:18.255Z,13.30
2023-02-14T15:06:07.025Z,15.88
2023-02-14T15:08:52.934Z,15.98
2023-02-14T15:11:57.466Z,18.00
2023-02-14T15:14:46.476Z,15.65
2023-02-14T15:17:32.777Z,15.98
2023-02-14T15:20:21.730Z,14.45
2023-02-14T15:23:08.034Z,15.93
2023-02-14T15:25:53.873Z,14.80
2023-02-14T15:28:39.727Z,13.18
2023-02-14T15:31:29.497Z,16.25
2023-02-14T15:34:15.829Z,15.85
2023-02-14T15:37:06.734Z,13.68
2023-02-14T15:39:57.824Z,16.17
2023-02-14T15:42:44.828Z,19.65
2023-02-14T15:45:31.292Z,15.07
2023-02-14T15:48:27.073Z,15.40
2023-02-14T15:51:25.223Z,14.38
2023-02-14T15:54:33.438Z,15.73
2023-02-14T15:57:29.904Z,14.30
2023-02-14T16:00:18.052Z,15.30
2023-02-14T16:03:07.415Z,15.15
2023-02-14T16:05:54.873Z,12.80
2023-02-14T16:08:41.751Z,16.80
2023-02-14T16:11:33.326Z,12.73
2023-02-14T16:14:42.820Z,15.60
2023-02-14T16:17:34.656Z,17.20
2023-02-14T16:20:21.272Z,14.80
2023-02-14T16:23:17.825Z,19.85
2023-02-14T16:26:06.816Z,26.02
2023-02-14T16:28:52.779Z,17.75
2023-02-14T16:31:51.900Z,19.67
2023-02-14T16:34:48.389Z,14.60
2023-02-14T16:37:34.855Z,17.75
2023-02-14T16:40:25.044Z,15.77
2023-02-14T16:43:19.501Z,15.10
2023-02-14T16:46:05.680Z,24.30
2023-02-14T16:48:54.576Z,26.30
2023-02-14T16:51:43.464Z,20.13
2023-02-14T16:54:29.701Z,15.90
2023-02-14T16:57:42.511Z,18.15
2023-02-14T17:03:14.443Z,16.63
2023-02-14T17:06:00.678Z,18.02
2023-02-14T17:08:47.610Z,19.20
2023-02-14T17:11:41.196Z,15.57
2023-02-14T17:14:30.135Z,13.45
2023-02-14T17:17:17.544Z,16.33
2023-02-14T17:20:06.039Z,16.80
2023-02-14T17:22:52.276Z,17.83
2023-02-14T17:25:38.834Z,22.95
2023-02-14T17:28:26.644Z,18.92
2023-02-14T17:31:13.188Z,17.05
2023-02-14T17:33:59.251Z,17.23
2023-02-14T17:36:45.470Z,16.20
2023-02-14T17:39:31.323Z,18.30
2023-02-14T17:42:17.006Z,18.50
2023-02-14T17:45:06.128Z,14.88
2023-02-14T17:47:52.401Z,14.98
2023-02-14T17:50:38.203Z,15.93
2023-02-14T17:53:23.912Z,15.50
2023-02-14T17:56:11.913Z,16.40
2023-02-14T17:58:59.874Z,16.90
2023-02-14T18:01:45.963Z,21.15
2023-02-14T18:04:35.005Z,17.98
2023-02-14T18:07:21.503Z,16.52
2023-02-14T18:10:08.481Z,16.85
2023-02-14T18:12:54.414Z,16.85
2023-02-14T18:15:40.277Z,17.98
2023-02-14T18:18:26.216Z,16.73
2023-02-14T18:21:14.179Z,17.23
2023-02-14T18:24:00.673Z,20.60
2023-02-14T18:26:47.047Z,16.05
2023-02-14T18:29:33.971Z,18.42
2023-02-14T18:32:20.175Z,20.55
2023-02-14T18:35:06.243Z,17.55
2023-02-14T18:37:52.473Z,16.48
2023-02-14T18:40:38.658Z,20.58
2023-02-14T18:43:24.778Z,19.35
2023-02-14T18:46:25.736Z,18.58
2023-02-14T18:49:13.400Z,17.90
2023-02-14T18:51:59.450Z,25.02
2023-02-14T18:54:45.194Z,19.77
2023-02-14T18:57:31.533Z,23.58
2023-02-14T19:00:17.891Z,20.02
2023-02-14T19:03:03.589Z,21.15
2023-02-14T19:05:49.635Z,20.52
2023-02-14T19:08:37.719Z,22.35
2023-02-14T19:11:31.351Z,19.10
2023-02-14T19:14:18.361Z,24.35
2023-02-14T19:17:04.947Z,21.40
2023-02-14T19:19:54.436Z,21.85
2023-02-14T19:22:41.437Z,19.08
2023-02-14T19:25:29.522Z,20.35
2023-02-14T19:28:15.786Z,18.58
2023-02-14T19:31:02.405Z,34.13
2023-02-14T19:33:48.949Z,20.98
2023-02-14T19:36:37.582Z,21.15
2023-02-14T19:39:24.585Z,19.77
2023-02-14T19:42:10.759Z,22.00
2023-02-14T19:44:59.121Z,20.20
2023-02-14T19:47:47.310Z,20.33
2023-02-14T19:50:33.759Z,18.08
2023-02-14T19:53:19.547Z,19.17
2023-02-14T19:56:06.411Z,23.30
2023-02-14T19:58:52.839Z,22.58
2023-02-14T20:01:42.188Z,19.92
2023-02-14T20:04:29.759Z,21.80
2023-02-14T20:07:17.473Z,20.27
2023-02-14T20:10:04.622Z,20.85
2023-02-14T20:12:50.774Z,23.00
2023-02-14T20:15:37.578Z,18.58
2023-02-14T20:18:23.880Z,18.08
2023-02-14T20:21:16.808Z,20.92
2023-02-14T20:26:50.822Z,19.60
2023-02-14T20:29:39.067Z,15.70
2023-02-14T20:32:25.261Z,21.25
2023-02-14T20:35:11.628Z,20.13
2023-02-14T20:37:57.760Z,19.10
2023-02-14T20:40:44.666Z,20.20
2023-02-14T20:43:30.752Z,23.08
2023-02-14T20:46:17.060Z,19.38
2023-02-14T20:49:03.780Z,25.73
2023-02-14T20:51:50.364Z,21.48
2023-02-14T20:54:38.878Z,16.98
2023-02-14T20:57:25.331Z,22.83
2023-02-14T21:00:11.538Z,19.90
2023-02-14T21:02:57.565Z,22.92
2023-02-14T21:05:43.371Z,18.35
2023-02-14T21:08:29.372Z,20.85
2023-02-14T21:11:17.497Z,21.60
2023-02-14T21:14:03.564Z,20.05
2023-02-14T21:16:49.510Z,18.30
2023-02-14T21:19:35.701Z,19.40
2023-02-14T21:22:21.665Z,19.75
2023-02-14T21:25:07.963Z,16.13
2023-02-14T21:27:54.337Z,17.42
2023-02-14T21:30:40.438Z,16.88
2023-02-14T21:33:31.966Z,16.70
2023-02-14T21:36:23.117Z,16.07
2023-02-14T21:39:09.662Z,18.48
2023-02-14T21:41:56.344Z,23.27
2023-02-14T21:45:00.805Z,19.25
2023-02-14T21:48:06.759Z,15.43
2023-02-14T21:50:52.789Z,19.90
2023-02-14T21:53:38.886Z,21.05
2023-02-14T21:56:24.842Z,21.00
2023-02-14T21:59:11.516Z,18.65
2023-02-14T22:01:58.978Z,17.17
2023-02-14T22:04:45.728Z,19.15
2023-02-14T22:07:31.652Z,20.30
2023-02-14T22:10:17.492Z,18.08
2023-02-14T22:13:03.303Z,17.50
2023-02-14T22:15:49.605Z,16.02
2023-02-14T22:18:35.680Z,17.38
2023-02-14T22:21:24.129Z,17.92
2023-02-14T22:24:10.417Z,17.25
2023-02-14T22:26:56.205Z,20.23
2023-02-14T22:29:42.599Z,20.27
2023-02-14T22:32:29.157Z,18.30
2023-02-14T22:35:15.021Z,19.10
2023-02-14T22:38:01.037Z,20.70
2023-02-14T22:40:46.792Z,19.30
2023-02-14T22:43:32.673Z,19.48
2023-02-14T22:46:21.553Z,22.73
2023-02-14T22:49:07.579Z,20.80
2023-02-14T22:51:53.562Z,19.52
2023-02-14T22:54:39.558Z,22.15
2023-02-14T22:57:25.806Z,19.90
2023-02-14T23:00:12.029Z,21.67
2023-02-14T23:02:57.990Z,20.27
2023-02-14T23:05:43.832Z,21.10
2023-02-14T23:08:29.789Z,20.40
2023-02-14T23:11:20.762Z,23.20
2023-02-14T23:14:25.223Z,20.25
2023-02-14T23:17:18.559Z,22.70
2023-02-14T23:20:23.592Z,23.67
2023-02-14T23:23:09.646Z,23.23
2023-02-14T23:25:55.673Z,22.30
2023-02-14T23:28:41.417Z,21.58
2023-02-14T23:31:27.360Z,21.58
2023-02-14T23:34:13.433Z,23.80
2023-02-14T23:36:59.861Z,25.63
2023-02-14T23:39:45.898Z,24.98
2023-02-14T23:42:31.819Z,24.00
2023-02-14T23:45:35.770Z,21.40
2023-02-14T23:48:21.726Z,25.42
2023-02-14T23:51:07.664Z,21.88
2023-02-14T23:53:54.617Z,21.45
2023-02-14T23:56:40.815Z,21.73
2023-02-14T23:59:27.380Z,23.25
